Time;durP1;ratioP1;P1;durP2;ratioP2;P2;SDS_P1;SDS_P2;PMS_P1;PMS_P2;Temp;Humidity;BMP_temperature;BMP_pressure;BME280_temperature;BME280_humidity;BME280_pressure;Samples;Min_cycle;Max_cycle;Signal;HPM_P1;HPM_P2
2022/07/07 00:00:42;;;;;;;5.35;2.72;;;;;;;23.92;70.23;98539.34;4995129;28;20029;-63
2022/07/07 00:03:07;;;;;;;6.88;2.47;;;;;;;24.01;70.34;98545.13;4998470;28;20034;-64
2022/07/07 00:05:33;;;;;;;7.65;2.70;;;;;;;23.76;69.62;98511.63;5000324;28;20061;-63
2022/07/07 00:07:58;;;;;;;7.05;2.83;;;;;;;23.94;70.21;98551.34;4999818;28;20519;-63
2022/07/07 00:10:24;;;;;;;9.18;2.70;;;;;;;23.99;70.29;98538.16;5028211;28;20524;-65
2022/07/07 00:12:49;;;;;;;9.60;3.15;;;;;;;23.97;70.70;98534.94;5000965;28;20027;-62
2022/07/07 00:15:15;;;;;;;9.65;3.03;;;;;;;23.82;70.19;98529.31;5017646;28;20684;-66
2022/07/07 00:17:40;;;;;;;6.22;2.83;;;;;;;23.64;71.20;98530.22;5007285;28;20571;-67
2022/07/07 00:20:06;;;;;;;6.60;2.80;;;;;;;23.61;71.61;98515.56;5003705;28;20757;-63
2022/07/07 00:22:31;;;;;;;7.30;2.50;;;;;;;23.71;71.10;98520.31;5000747;28;20022;-63
2022/07/07 00:24:57;;;;;;;6.22;2.45;;;;;;;23.66;71.42;98524.69;5008218;28;20036;-62
2022/07/07 00:27:22;;;;;;;8.05;2.72;;;;;;;23.65;71.51;98520.41;5001764;28;20030;-64
2022/07/07 00:29:48;;;;;;;7.47;2.30;;;;;;;23.44;71.42;98522.63;4984641;28;20033;-63
2022/07/07 00:32:14;;;;;;;7.70;2.78;;;;;;;23.46;70.73;98531.16;5001007;28;20022;-61
2022/07/07 00:34:39;;;;;;;5.85;2.45;;;;;;;23.42;71.33;98532.66;5002344;28;20033;-63
2022/07/07 00:37:04;;;;;;;6.50;2.25;;;;;;;23.29;69.10;98525.72;5002717;28;20504;-65
2022/07/07 00:39:30;;;;;;;5.00;2.47;;;;;;;23.22;70.48;98525.81;5000642;28;20033;-66
2022/07/07 00:41:55;;;;;;;5.72;2.30;;;;;;;23.05;68.83;98490.38;5003661;28;20645;-65
2022/07/07 00:44:22;;;;;;;4.75;2.10;;;;;;;23.30;68.05;98537.94;4985509;28;20127;-63
2022/07/07 00:46:50;;;;;;;5.13;2.30;;;;;;;23.38;68.93;98540.25;5017514;28;20076;-64
2022/07/07 00:49:17;;;;;;;4.70;2.40;;;;;;;23.34;69.01;98509.91;4989000;28;20116;-63
2022/07/07 00:51:43;;;;;;;4.25;2.10;;;;;;;23.55;69.57;98537.72;5001523;28;20034;-61
2022/07/07 00:54:10;;;;;;;5.18;2.17;;;;;;;23.51;68.45;98539.22;4999836;28;20018;-62
2022/07/07 00:56:37;;;;;;;4.70;2.10;;;;;;;23.28;68.16;98518.78;5004720;28;20029;-62
2022/07/07 00:59:06;;;;;;;4.13;2.10;;;;;;;23.22;68.17;98541.72;4984435;28;20037;-63
2022/07/07 01:01:35;;;;;;;4.63;2.03;;;;;;;23.27;67.93;98535.72;5001723;28;20116;-64
2022/07/07 01:04:02;;;;;;;5.30;2.10;;;;;;;23.17;67.45;98499.16;5002113;28;20025;-63
2022/07/07 01:06:28;;;;;;;5.13;2.28;;;;;;;23.47;67.89;98530.09;5000169;28;20121;-66
2022/07/07 01:08:54;;;;;;;4.28;2.05;;;;;;;23.44;66.97;98537.69;5001223;28;20539;-63
2022/07/07 01:11:20;;;;;;;4.88;2.17;;;;;;;23.36;65.84;98530.91;4999324;28;20129;-64
2022/07/07 01:13:45;;;;;;;4.43;2.30;;;;;;;23.31;66.20;98521.00;5001633;28;20105;-63
2022/07/07 01:16:10;;;;;;;5.03;1.98;;;;;;;23.10;67.86;98522.34;5000198;28;20428;-63
2022/07/07 01:18:36;;;;;;;4.90;2.25;;;;;;;22.92;69.29;98523.19;5002630;28;20125;-63
2022/07/07 01:21:03;;;;;;;4.57;2.13;;;;;;;22.94;69.06;98518.47;5018225;28;20456;-62
2022/07/07 01:23:28;;;;;;;4.68;1.92;;;;;;;22.98;69.58;98514.34;4998571;28;20029;-64
2022/07/07 01:25:53;;;;;;;3.78;1.90;;;;;;;22.78;70.40;98496.09;5001035;28;20465;-62
2022/07/07 01:28:19;;;;;;;6.68;2.30;;;;;;;22.53;70.13;98450.41;5031630;28;20034;-62
2022/07/07 01:30:44;;;;;;;4.85;2.20;;;;;;;22.58;70.37;98471.69;4993881;28;20025;-64
2022/07/07 01:33:10;;;;;;;5.95;2.50;;;;;;;22.72;70.44;98510.22;4994711;28;20018;-63
2022/07/07 01:35:35;;;;;;;4.20;2.03;;;;;;;22.67;68.79;98506.63;4994901;28;20616;-63
2022/07/07 01:38:01;;;;;;;5.95;2.30;;;;;;;22.65;68.28;98505.03;4998253;28;20014;-61
2022/07/07 01:40:26;;;;;;;4.28;2.15;;;;;;;22.61;68.56;98500.41;5000131;28;20048;-65
2022/07/07 01:42:51;;;;;;;5.60;2.20;;;;;;;22.66;67.62;98508.47;5000596;28;20026;-65
2022/07/07 01:45:17;;;;;;;5.38;2.38;;;;;;;22.75;67.51;98506.31;5002189;28;20057;-64
2022/07/07 01:47:42;;;;;;;6.32;2.28;;;;;;;22.77;67.13;98510.34;4998379;28;20548;-65
2022/07/07 01:50:08;;;;;;;4.90;2.08;;;;;;;22.83;67.89;98506.81;5000047;28;20026;-61
2022/07/07 01:52:35;;;;;;;5.22;2.05;;;;;;;22.80;68.21;98514.41;4998596;28;20017;-64
2022/07/07 01:55:00;;;;;;;5.68;2.47;;;;;;;22.76;67.48;98497.31;5001911;28;20592;-65
2022/07/07 01:57:26;;;;;;;5.20;2.15;;;;;;;22.75;67.48;98507.13;5005563;28;20022;-64
2022/07/07 01:59:51;;;;;;;5.03;2.17;;;;;;;22.76;67.72;98503.47;5000702;28;20673;-63
2022/07/07 02:02:16;;;;;;;5.18;2.00;;;;;;;22.64;68.87;98505.25;4998818;28;20570;-65
2022/07/07 02:04:42;;;;;;;3.80;1.90;;;;;;;22.46;68.70;98469.03;5000194;28;20022;-63
2022/07/07 02:07:07;;;;;;;4.53;2.28;;;;;;;22.57;68.72;98507.19;5001306;28;20534;-66
2022/07/07 02:09:33;;;;;;;4.50;2.20;;;;;;;22.54;69.85;98507.63;5000026;28;20428;-63
2022/07/07 02:11:58;;;;;;;4.40;2.03;;;;;;;22.53;69.95;98506.81;5000752;28;20087;-64
2022/07/07 02:14:23;;;;;;;4.80;2.17;;;;;;;22.56;69.91;98503.75;5002230;28;20076;-63
2022/07/07 02:16:49;;;;;;;5.25;2.10;;;;;;;22.66;70.31;98508.47;5000346;28;20039;-63
2022/07/07 02:19:14;;;;;;;4.78;2.33;;;;;;;22.59;70.24;98505.13;4995007;28;20076;-62
2022/07/07 02:21:40;;;;;;;6.47;2.60;;;;;;;22.54;69.73;98497.81;4996823;28;20025;-66
2022/07/07 02:24:05;;;;;;;5.22;2.35;;;;;;;22.59;69.72;98511.22;4999753;28;20041;-63
2022/07/07 02:26:33;;;;;;;4.63;2.17;;;;;;;22.56;69.99;98513.50;5032001;28;20022;-62
2022/07/07 02:28:58;;;;;;;4.72;2.10;;;;;;;22.35;69.07;98473.25;5009297;28;20053;-66
2022/07/07 02:31:24;;;;;;;4.43;2.10;;;;;;;22.53;68.93;98519.28;4995485;28;20045;-64
2022/07/07 02:33:49;;;;;;;5.85;2.53;;;;;;;22.51;68.76;98516.84;5000175;28;20029;-64
2022/07/07 02:36:14;;;;;;;6.18;2.47;;;;;;;22.50;68.71;98514.41;4996290;28;20362;-65
2022/07/07 02:38:40;;;;;;;5.60;2.65;;;;;;;22.47;68.66;98531.56;5004124;28;20353;-63
2022/07/07 02:41:06;;;;;;;4.55;2.40;;;;;;;22.51;68.10;98513.41;4998946;28;20029;-62
2022/07/07 02:43:32;;;;;;;5.57;2.67;;;;;;;22.53;67.99;98527.22;4999983;28;20030;-65
2022/07/07 02:45:58;;;;;;;3.83;1.98;;;;;;;22.26;67.82;98501.06;5003325;28;20025;-62
2022/07/07 02:48:24;;;;;;;4.25;2.30;;;;;;;22.49;68.14;98532.16;5001664;28;20038;-63
2022/07/07 02:50:51;;;;;;;5.32;2.03;;;;;;;22.52;67.69;98522.94;5003798;28;20168;-64
2022/07/07 02:53:17;;;;;;;4.60;2.63;;;;;;;22.46;67.00;98527.31;4983272;28;20026;-63
2022/07/07 02:55:43;;;;;;;5.18;2.40;;;;;;;22.16;67.36;98490.97;5002865;28;20491;-62
2022/07/07 02:58:10;;;;;;;4.50;2.30;;;;;;;22.47;67.08;98528.94;5002721;28;20045;-63
2022/07/07 03:00:36;;;;;;;5.95;2.20;;;;;;;22.52;67.00;98533.53;4999293;28;20076;-64
2022/07/07 03:03:03;;;;;;;4.93;2.30;;;;;;;22.57;67.91;98512.50;4986935;28;20037;-65
2022/07/07 03:05:29;;;;;;;5.57;2.22;;;;;;;22.38;68.52;98493.16;5002882;28;20109;-64
2022/07/07 03:07:55;;;;;;;4.10;2.08;;;;;;;22.72;68.22;98533.28;5003477;28;20018;-64
2022/07/07 03:10:20;;;;;;;4.30;2.10;;;;;;;22.71;66.57;98535.13;5002232;28;20030;-65
2022/07/07 03:12:46;;;;;;;6.97;2.20;;;;;;;22.49;68.04;98536.63;5003821;28;20017;-64
2022/07/07 03:15:12;;;;;;;5.82;2.30;;;;;;;22.46;66.85;98533.41;5003452;28;20114;-64
2022/07/07 03:17:42;;;;;;;4.68;2.05;;;;;;;22.40;66.61;98534.31;5002587;28;20028;-65
2022/07/07 03:20:08;;;;;;;4.18;2.03;;;;;;;22.32;65.90;98531.16;4999139;28;20291;-63
2022/07/07 03:22:33;;;;;;;5.03;2.00;;;;;;;22.44;65.72;98542.63;5002751;28;20022;-64
2022/07/07 03:24:59;;;;;;;5.70;2.13;;;;;;;22.33;66.94;98538.06;5003665;28;20476;-64
2022/07/07 03:27:24;;;;;;;4.60;2.20;;;;;;;22.01;67.99;98509.91;5003190;28;20025;-66
2022/07/07 03:29:50;;;;;;;4.53;2.33;;;;;;;22.24;66.84;98534.88;4993968;28;20062;-66
2022/07/07 03:32:15;;;;;;;3.90;1.83;;;;;;;22.17;67.01;98532.31;5020762;28;20034;-63
2022/07/07 03:34:41;;;;;;;6.97;2.40;;;;;;;22.13;68.24;98533.78;5004099;28;20023;-62
2022/07/07 03:37:06;;;;;;;4.22;2.28;;;;;;;22.20;70.12;98542.47;5004068;28;20026;-64
2022/07/07 03:39:32;;;;;;;5.93;2.30;;;;;;;21.91;71.13;98509.59;5002849;28;20026;-63
2022/07/07 03:41:57;;;;;;;4.97;2.50;;;;;;;21.81;68.80;98498.69;5002424;28;20114;-63
2022/07/07 03:44:22;;;;;;;6.25;2.40;;;;;;;22.04;67.05;98533.25;5007731;28;20014;-64
2022/07/07 03:46:48;;;;;;;5.90;2.13;;;;;;;22.03;67.00;98530.81;4996941;28;20460;-63
2022/07/07 03:49:13;;;;;;;4.90;2.25;;;;;;;22.02;67.55;98532.69;5018675;28;20121;-61
2022/07/07 03:51:38;;;;;;;4.75;2.20;;;;;;;21.86;67.67;98507.59;5002415;28;20364;-64
2022/07/07 03:54:04;;;;;;;5.10;2.20;;;;;;;21.94;68.22;98529.50;5018957;28;20099;-63
2022/07/07 03:56:29;;;;;;;4.95;2.10;;;;;;;21.98;67.72;98528.84;5034762;28;20087;-63
2022/07/07 03:58:55;;;;;;;5.05;2.28;;;;;;;22.00;67.31;98526.78;5000768;28;20030;-66
2022/07/07 04:01:20;;;;;;;4.43;2.13;;;;;;;21.84;67.76;98498.28;5001907;28;20115;-63
2022/07/07 04:03:45;;;;;;;4.97;2.50;;;;;;;21.96;68.17;98520.34;5003766;28;20688;-65
2022/07/07 04:06:11;;;;;;;6.05;2.28;;;;;;;22.02;68.74;98537.97;5009936;28;20033;-65
2022/07/07 04:08:36;;;;;;;5.75;2.20;;;;;;;22.05;68.86;98544.66;5001701;28;20056;-67
2022/07/07 04:11:02;;;;;;;4.50;2.20;;;;;;;21.76;68.72;98512.59;5001667;28;20524;-64
2022/07/07 04:13:27;;;;;;;4.60;2.20;;;;;;;21.81;68.09;98528.63;5001865;28;20092;-68
2022/07/07 04:15:52;;;;;;;4.15;2.00;;;;;;;21.96;67.90;98545.97;5022095;28;20606;-62
2022/07/07 04:18:18;;;;;;;6.63;2.30;;;;;;;21.95;68.08;98537.22;5002596;28;20076;-63
2022/07/07 04:20:43;;;;;;;4.07;2.10;;;;;;;21.98;68.58;98539.44;5001528;28;20022;-62
2022/07/07 04:23:09;;;;;;;4.63;2.30;;;;;;;21.79;68.79;98511.34;5002420;28;20109;-61
2022/07/07 04:25:34;;;;;;;5.35;2.33;;;;;;;21.96;68.78;98540.69;4999024;28;20026;-65
2022/07/07 04:27:59;;;;;;;4.85;2.10;;;;;;;21.99;68.00;98545.53;4997309;28;20105;-63
2022/07/07 04:30:25;;;;;;;4.60;2.10;;;;;;;21.74;68.48;98503.25;5015307;28;20142;-64
2022/07/07 04:32:50;;;;;;;6.00;2.30;;;;;;;22.00;68.26;98549.81;5002140;28;20093;-63
2022/07/07 04:35:15;;;;;;;3.90;2.00;;;;;;;21.90;68.84;98542.38;5000530;28;20346;-64
2022/07/07 04:37:41;;;;;;;5.78;2.17;;;;;;;21.87;68.84;98532.25;5001061;28;20129;-62
2022/07/07 04:40:07;;;;;;;4.57;2.20;;;;;;;21.96;68.05;98538.88;5003650;28;20491;-67
2022/07/07 04:42:33;;;;;;;3.97;2.10;;;;;;;21.94;67.77;98543.56;5000794;28;20026;-64
2022/07/07 04:44:58;;;;;;;4.45;1.98;;;;;;;21.87;67.99;98532.25;5002270;28;20033;-64
2022/07/07 04:47:23;;;;;;;6.72;2.25;;;;;;;21.93;67.82;98544.59;4998000;28;20027;-64
2022/07/07 04:49:52;;;;;;;4.88;2.20;;;;;;;21.93;68.34;98547.22;4996515;28;20034;-63
2022/07/07 04:52:18;;;;;;;5.17;2.00;;;;;;;21.87;68.64;98537.53;4997367;28;20102;-62
2022/07/07 04:54:43;;;;;;;4.60;2.13;;;;;;;21.84;67.54;98538.75;5002860;28;20910;-62
2022/07/07 04:57:09;;;;;;;4.97;2.08;;;;;;;21.86;67.07;98542.00;5001069;28;20145;-63
2022/07/07 04:59:34;;;;;;;5.55;2.10;;;;;;;21.81;67.39;98554.28;5033774;28;20435;-62
2022/07/07 05:02:00;;;;;;;3.63;1.83;;;;;;;21.91;67.10;98546.66;5001679;28;20360;-63
2022/07/07 05:04:26;;;;;;;5.03;2.20;;;;;;;21.64;66.96;98514.34;5000704;28;20030;-64
2022/07/07 05:06:52;;;;;;;5.60;2.15;;;;;;;21.82;66.94;98540.81;5001207;28;20141;-67
2022/07/07 05:09:17;;;;;;;4.30;2.40;;;;;;;21.71;67.06;98532.81;5001162;28;20120;-64
2022/07/07 05:11:43;;;;;;;4.00;2.20;;;;;;;21.76;67.13;98549.66;5006851;28;20137;-63
2022/07/07 05:14:09;;;;;;;4.22;2.00;;;;;;;21.71;67.34;98540.75;5033609;28;20030;-63
2022/07/07 05:16:35;;;;;;;6.10;2.00;;;;;;;21.74;67.46;98553.53;4998258;28;20046;-67
2022/07/07 05:19:00;;;;;;;5.65;2.50;;;;;;;21.76;67.78;98560.25;5002631;28;20117;-63
2022/07/07 05:21:26;;;;;;;4.70;2.10;;;;;;;21.71;67.89;98572.50;5000579;28;20026;-64
2022/07/07 05:23:55;;;;;;;4.20;2.13;;;;;;;21.75;67.73;98574.47;5031871;28;20599;-65
2022/07/07 05:26:20;;;;;;;4.45;2.20;;;;;;;21.75;68.02;98569.19;4984167;28;20033;-63
2022/07/07 05:28:46;;;;;;;4.70;2.10;;;;;;;21.60;68.04;98536.97;5017595;28;20423;-64
2022/07/07 05:31:15;;;;;;;4.70;2.30;;;;;;;21.75;68.46;98571.84;5001974;28;20033;-68
2022/07/07 05:33:42;;;;;;;4.82;2.30;;;;;;;21.73;68.86;98573.91;5006501;28;20133;-64
2022/07/07 05:36:08;;;;;;;6.53;2.30;;;;;;;21.77;69.01;98576.91;5003071;28;20030;-67
2022/07/07 05:38:34;;;;;;;5.05;2.40;;;;;;;21.81;68.74;98581.56;5001759;28;20338;-64
2022/07/07 05:40:59;;;;;;;5.45;2.40;;;;;;;21.78;68.97;98592.59;5013762;28;20026;-63
2022/07/07 05:43:25;;;;;;;6.00;2.33;;;;;;;21.81;68.44;98586.03;5001317;28;20033;-64
2022/07/07 05:45:50;;;;;;;4.18;2.13;;;;;;;21.82;68.35;98593.75;5000505;28;20101;-65
2022/07/07 05:48:16;;;;;;;4.47;2.28;;;;;;;21.84;68.50;98581.09;4998743;28;20065;-65
2022/07/07 05:50:42;;;;;;;4.78;2.00;;;;;;;21.84;68.32;98585.59;5016262;28;20683;-66
2022/07/07 05:53:07;;;;;;;4.55;2.10;;;;;;;21.93;67.85;98597.53;5026703;28;20488;-64
2022/07/07 05:55:33;;;;;;;5.88;1.90;;;;;;;21.98;67.49;98583.66;4993569;28;20018;-63
2022/07/07 05:57:58;;;;;;;3.60;2.00;;;;;;;21.86;67.21;98575.59;5000293;28;20014;-65
2022/07/07 06:00:24;;;;;;;5.28;2.10;;;;;;;21.95;67.13;98594.66;4999042;28;20470;-62
2022/07/07 06:02:51;;;;;;;5.38;2.10;;;;;;;22.08;66.08;98595.31;5002813;28;20485;-64
2022/07/07 06:05:17;;;;;;;4.93;2.33;;;;;;;22.06;65.51;98596.59;4999605;28;20033;-67
2022/07/07 06:07:43;;;;;;;4.55;2.05;;;;;;;22.05;65.91;98601.06;5000571;28;20033;-65
2022/07/07 06:10:10;;;;;;;5.65;2.25;;;;;;;22.00;64.57;98600.91;5000159;28;20034;-65
2022/07/07 06:12:36;;;;;;;5.00;2.10;;;;;;;21.96;63.58;98562.69;4998261;28;20097;-64
2022/07/07 06:15:02;;;;;;;7.85;2.20;;;;;;;22.25;62.88;98595.56;4999039;28;20033;-65
2022/07/07 06:17:28;;;;;;;4.32;2.05;;;;;;;22.25;61.76;98581.50;4999315;28;20101;-64
2022/07/07 06:19:54;;;;;;;4.07;1.90;;;;;;;22.32;59.74;98597.34;5000063;28;20026;-62
2022/07/07 06:22:19;;;;;;;5.38;1.80;;;;;;;22.38;59.28;98597.28;5016240;28;20022;-65
2022/07/07 06:24:45;;;;;;;4.20;1.85;;;;;;;22.35;59.08;98592.44;4999295;28;20101;-65
2022/07/07 06:27:10;;;;;;;5.30;2.20;;;;;;;22.41;59.28;98583.59;5020668;28;20021;-63
2022/07/07 06:29:35;;;;;;;5.50;1.77;;;;;;;22.48;58.90;98591.47;5004352;28;20021;-63
2022/07/07 06:32:01;;;;;;;5.95;2.15;;;;;;;22.54;57.74;98592.41;4999838;28;20346;-64
2022/07/07 06:34:26;;;;;;;5.78;1.95;;;;;;;22.67;57.28;98589.63;4998563;28;20157;-64
2022/07/07 06:36:51;;;;;;;4.10;1.83;;;;;;;22.53;57.66;98567.75;5016112;28;20018;-65
2022/07/07 06:39:17;;;;;;;4.00;1.80;;;;;;;22.51;56.96;98545.19;4993949;28;20373;-66
2022/07/07 06:41:42;;;;;;;4.68;1.73;;;;;;;22.69;55.56;98576.13;5002200;28;20101;-64
2022/07/07 06:44:11;;;;;;;4.38;1.88;;;;;;;22.78;56.61;98588.00;5000909;28;20396;-64
2022/07/07 06:46:37;;;;;;;7.30;2.00;;;;;;;22.82;55.76;98575.97;5000605;28;20465;-64
2022/07/07 06:49:03;;;;;;;6.35;1.98;;;;;;;22.87;55.84;98573.41;4998197;28;20026;-65
2022/07/07 06:51:29;;;;;;;5.15;1.90;;;;;;;22.90;55.46;98572.97;4993047;28;20034;-64
2022/07/07 06:53:54;;;;;;;4.70;2.15;;;;;;;22.72;57.89;98565.88;4997923;28;20042;-66
2022/07/07 06:56:20;;;;;;;6.57;2.50;;;;;;;22.66;58.19;98569.44;4998906;28;20026;-64
2022/07/07 06:58:45;;;;;;;5.88;1.77;;;;;;;22.69;57.05;98573.47;4997191;28;20098;-64
2022/07/07 07:01:11;;;;;;;4.80;1.80;;;;;;;22.51;57.22;98538.03;4999762;28;20032;-66
2022/07/07 07:03:36;;;;;;;7.03;2.00;;;;;;;22.68;55.85;98571.88;5001917;28;20373;-65
2022/07/07 07:06:02;;;;;;;5.68;2.20;;;;;;;22.78;53.92;98566.81;5000346;28;20014;-64
2022/07/07 07:08:27;;;;;;;4.28;1.90;;;;;;;22.88;52.88;98568.94;4999894;28;20026;-65
2022/07/07 07:10:52;;;;;;;4.07;2.17;;;;;;;22.91;51.21;98571.94;5000899;28;20029;-65
2022/07/07 07:13:18;;;;;;;3.55;1.80;;;;;;;22.99;51.27;98570.81;4999961;28;20109;-63
2022/07/07 07:15:44;;;;;;;4.20;1.90;;;;;;;23.02;51.04;98573.03;5000722;28;20446;-65
2022/07/07 07:18:09;;;;;;;4.90;1.85;;;;;;;23.03;52.06;98578.06;5015113;28;20038;-66
2022/07/07 07:20:35;;;;;;;4.00;1.92;;;;;;;23.11;51.48;98563.75;5000207;28;20097;-65
2022/07/07 07:23:00;;;;;;;4.60;1.75;;;;;;;23.16;49.84;98569.19;5001157;28;20491;-64
2022/07/07 07:25:26;;;;;;;4.15;2.13;;;;;;;22.99;49.22;98536.34;5001680;28;20189;-64
2022/07/07 07:27:51;;;;;;;4.68;2.38;;;;;;;23.22;46.78;98578.88;5011594;28;20023;-67
2022/07/07 07:30:17;;;;;;;4.93;2.67;;;;;;;23.18;47.89;98547.69;4996498;28;20033;-67
2022/07/07 07:32:43;;;;;;;4.53;1.85;;;;;;;23.51;48.23;98576.38;5018170;28;20018;-64
2022/07/07 07:35:09;;;;;;;3.88;1.88;;;;;;;23.58;47.68;98568.28;5005301;28;20030;-63
2022/07/07 07:37:35;;;;;;;4.43;1.73;;;;;;;23.46;47.23;98543.63;4997558;28;20120;-63
2022/07/07 07:40:00;;;;;;;3.97;1.50;;;;;;;23.75;46.65;98576.38;5003801;28;20018;-63
2022/07/07 07:42:26;;;;;;;4.35;2.08;;;;;;;23.65;49.22;98539.78;5004031;28;20645;-67
2022/07/07 07:45:09;;;;;;;5.88;2.42;;;;;;;23.97;50.43;98574.78;5002845;28;20022;-64
2022/07/07 07:47:35;;;;;;;6.65;2.17;;;;;;;24.11;48.31;98583.31;5010211;28;20036;-65
2022/07/07 07:50:01;;;;;;;5.40;1.70;;;;;;;24.17;48.65;98586.88;4996875;28;20021;-65
2022/07/07 07:52:26;;;;;;;5.10;2.40;;;;;;;24.24;49.71;98584.91;5002693;28;20034;-66
2022/07/07 07:54:52;;;;;;;4.35;1.85;;;;;;;24.05;50.48;98547.03;5002746;28;20101;-66
2022/07/07 07:57:18;;;;;;;6.75;2.17;;;;;;;24.59;49.51;98585.88;5001134;28;20041;-63
2022/07/07 07:59:44;;;;;;;5.85;2.00;;;;;;;24.75;47.67;98591.25;5019231;28;20046;-65
2022/07/07 08:02:09;;;;;;;3.50;1.60;;;;;;;24.72;47.76;98601.56;5013476;28;20049;-68
2022/07/07 08:04:35;;;;;;;4.45;1.80;;;;;;;24.67;48.19;98604.91;4997094;28;20044;-63
2022/07/07 08:07:00;;;;;;;4.85;1.92;;;;;;;24.53;48.37;98601.72;5019055;28;20421;-64
2022/07/07 08:09:26;;;;;;;3.90;1.73;;;;;;;24.69;46.92;98604.69;5016221;28;20030;-65
2022/07/07 08:11:52;;;;;;;5.10;1.85;;;;;;;25.02;46.98;98589.84;5017824;28;20076;-65
2022/07/07 08:14:18;;;;;;;4.10;1.90;;;;;;;25.75;45.67;98590.00;5002487;28;20440;-64
2022/07/07 08:16:43;;;;;;;4.55;1.90;;;;;;;26.33;43.20;98585.19;5001875;28;20056;-65
2022/07/07 08:19:09;;;;;;;4.20;1.80;;;;;;;26.81;42.55;98588.94;5002772;28;20030;-63
2022/07/07 08:21:35;;;;;;;5.97;1.70;;;;;;;26.96;41.23;98566.94;4998937;28;20526;-66
2022/07/07 08:24:01;;;;;;;3.88;1.77;;;;;;;27.46;40.75;98579.16;4998241;28;20163;-65
2022/07/07 08:26:26;;;;;;;4.85;1.85;;;;;;;27.10;41.44;98559.34;5000942;28;20065;-64
2022/07/07 08:28:52;;;;;;;7.63;1.88;;;;;;;27.55;41.88;98577.63;5001356;28;20101;-67
2022/07/07 08:31:17;;;;;;;5.55;2.05;;;;;;;27.85;41.90;98576.19;4996010;28;20053;-63
2022/07/07 08:33:42;;;;;;;4.30;2.00;;;;;;;28.21;42.55;98580.97;5002165;28;20101;-64
2022/07/07 08:36:08;;;;;;;5.63;2.05;;;;;;;28.31;43.14;98570.28;5000225;28;20029;-63
2022/07/07 08:38:33;;;;;;;6.90;2.20;;;;;;;28.35;42.93;98542.78;5002747;28;20701;-63
2022/07/07 08:40:59;;;;;;;6.72;2.25;;;;;;;28.58;42.01;98561.31;5018614;28;20018;-64
2022/07/07 08:43:24;;;;;;;7.60;2.15;;;;;;;29.03;41.74;98560.59;4999607;28;20399;-67
2022/07/07 08:45:50;;;;;;;7.28;2.25;;;;;;;28.99;41.47;98556.84;5002031;28;20052;-63
2022/07/07 08:48:15;;;;;;;4.68;1.92;;;;;;;29.10;41.22;98563.81;5002556;28;20042;-64
2022/07/07 08:50:41;;;;;;;4.97;2.17;;;;;;;29.08;41.40;98565.16;5002489;28;20727;-64
2022/07/07 08:53:12;;;;;;;5.70;2.30;;;;;;;29.07;41.47;98564.34;5002283;28;20851;-65
2022/07/07 08:55:40;;;;;;;5.43;2.15;;;;;;;29.50;40.36;98554.19;4995092;28;20030;-64
2022/07/07 08:58:06;;;;;;;6.38;2.20;;;;;;;29.65;40.83;98537.28;5005018;28;20030;-65
2022/07/07 09:00:31;;;;;;;6.38;2.30;;;;;;;29.23;42.46;98549.13;5000556;28;20132;-65
2022/07/07 09:02:57;;;;;;;5.50;2.30;;;;;;;28.67;43.25;98544.50;4996933;28;20037;-65
2022/07/07 09:05:23;;;;;;;5.07;2.35;;;;;;;29.09;42.30;98545.34;5001129;28;20029;-64
2022/07/07 09:07:51;;;;;;;5.28;2.25;;;;;;;29.55;41.56;98547.22;4996802;28;20980;-63
2022/07/07 09:10:32;;;;;;;6.57;2.45;;;;;;;29.84;42.24;98547.44;4984334;28;20129;-65
2022/07/07 09:12:59;;;;;;;6.95;2.38;;;;;;;30.37;39.77;98542.41;5000490;28;20030;-65
2022/07/07 09:15:24;;;;;;;4.53;2.20;;;;;;;30.32;38.53;98526.34;4995873;28;20439;-64
2022/07/07 09:17:50;;;;;;;5.88;2.30;;;;;;;30.26;38.66;98493.38;5000122;28;20156;-65
2022/07/07 09:20:16;;;;;;;6.50;2.47;;;;;;;30.31;37.13;98524.75;4998394;28;20026;-65
2022/07/07 09:22:50;;;;;;;4.30;2.00;;;;;;;30.71;36.99;98517.56;5017172;28;20477;-64
2022/07/07 09:25:18;;;;;;;4.45;2.20;;;;;;;30.82;37.22;98526.34;5000925;28;20026;-66
2022/07/07 09:27:50;;;;;;;5.40;2.20;;;;;;;30.37;37.30;98512.91;5000636;28;20022;-64
2022/07/07 09:30:29;;;;;;;5.38;2.20;;;;;;;30.56;37.51;98544.50;4993874;28;20050;-68
2022/07/07 09:32:55;;;;;;;4.43;2.15;;;;;;;30.59;36.74;98538.56;5001130;28;20030;-66
2022/07/07 09:38:15;;;;;;;4.30;2.28;;;;;;;30.79;35.85;98529.56;4998548;28;20088;-65
2022/07/07 09:40:59;;;;;;;5.25;2.50;;;;;;;30.51;36.86;98520.38;5001292;28;20033;-68
2022/07/07 09:43:26;;;;;;;6.15;2.22;;;;;;;30.65;35.78;98524.84;5001042;28;20323;-66
2022/07/07 09:46:09;;;;;;;5.38;2.17;;;;;;;30.74;36.58;98514.31;4998356;28;20023;-69
2022/07/07 09:48:37;;;;;;;5.75;2.20;;;;;;;31.17;35.51;98521.78;5001028;28;20026;-66
2022/07/07 09:51:22;;;;;;;4.28;2.25;;;;;;;31.12;36.35;98517.25;4984815;28;20104;-67
2022/07/07 09:53:57;;;;;;;4.93;2.55;;;;;;;30.82;36.80;98494.91;5027257;28;20369;-64
2022/07/07 09:56:24;;;;;;;4.80;2.55;;;;;;;30.78;36.16;98520.72;5016052;28;20381;-66
2022/07/07 09:58:50;;;;;;;5.57;2.38;;;;;;;30.64;35.28;98498.28;4999660;28;20519;-62
2022/07/07 10:01:17;;;;;;;5.43;2.33;;;;;;;30.69;36.01;98492.88;5000406;28;20615;-67
2022/07/07 10:03:42;;;;;;;6.75;2.72;;;;;;;30.52;36.67;98530.00;4998702;28;20749;-67
2022/07/07 10:06:09;;;;;;;4.85;2.17;;;;;;;30.55;37.04;98526.78;5005685;28;20034;-65
2022/07/07 10:08:35;;;;;;;4.38;2.38;;;;;;;30.27;37.50;98532.53;5000944;28;20036;-66
2022/07/07 10:11:02;;;;;;;4.85;2.58;;;;;;;29.93;37.61;98521.69;5006921;28;20029;-64
2022/07/07 10:13:29;;;;;;;5.75;2.67;;;;;;;29.65;37.75;98515.84;4999935;28;20404;-67
2022/07/07 10:15:56;;;;;;;4.90;2.50;;;;;;;29.41;39.03;98529.03;4995135;28;20042;-64
2022/07/07 10:18:22;;;;;;;9.23;2.40;;;;;;;29.37;39.84;98516.44;4999972;28;20488;-67
2022/07/07 10:20:48;;;;;;;5.22;2.40;;;;;;;29.05;38.74;98517.50;4999206;28;20030;-66
2022/07/07 10:23:14;;;;;;;5.32;2.70;;;;;;;28.83;39.55;98491.03;5001029;28;20029;-66
2022/07/07 10:25:39;;;;;;;5.10;2.50;;;;;;;28.56;39.93;98466.09;5001272;28;20264;-64
2022/07/07 10:28:04;;;;;;;4.68;2.60;;;;;;;28.81;40.14;98496.63;5000690;28;20022;-65
2022/07/07 10:30:31;;;;;;;7.03;2.40;;;;;;;28.88;38.92;98485.69;5000843;28;20040;-66
2022/07/07 10:32:57;;;;;;;5.65;2.78;;;;;;;28.66;38.68;98459.97;5006746;28;20096;-65
2022/07/07 10:35:25;;;;;;;5.53;2.42;;;;;;;28.81;40.07;98459.19;5001582;28;20493;-64
2022/07/07 10:37:52;;;;;;;5.45;2.40;;;;;;;28.72;40.11;98456.22;4999543;28;20014;-64
2022/07/07 10:40:30;;;;;;;5.20;2.70;;;;;;;28.63;40.22;98491.81;5000468;28;20030;-64
2022/07/07 10:43:18;;;;;;;5.57;2.58;;;;;;;28.75;39.88;98479.78;5009981;28;20018;-64
2022/07/07 10:45:46;;;;;;;5.72;2.40;;;;;;;28.60;40.38;98484.31;5009639;28;20612;-65
2022/07/07 10:48:41;;;;;;;5.03;2.60;;;;;;;28.51;40.46;98478.63;4995968;28;20022;-62
2022/07/07 10:51:33;;;;;;;5.00;2.55;;;;;;;28.61;39.86;98470.66;4993834;28;20145;-67
2022/07/07 10:54:06;;;;;;;4.50;2.45;;;;;;;28.56;41.73;98458.09;4997044;28;20112;-66
2022/07/07 10:56:50;;;;;;;5.93;2.60;;;;;;;28.67;39.93;98460.78;4984328;28;20036;-65
2022/07/07 10:59:16;;;;;;;4.47;2.40;;;;;;;28.98;39.69;98476.84;4995481;28;20521;-63
2022/07/07 11:02:01;;;;;;;6.22;2.70;;;;;;;28.93;39.29;98462.38;4993833;28;20037;-68
2022/07/07 11:04:41;;;;;;;4.95;2.67;;;;;;;28.76;39.84;98454.63;5001092;28;20034;-66
2022/07/07 11:07:15;;;;;;;5.22;2.60;;;;;;;28.76;40.19;98443.13;5025505;28;20427;-69
2022/07/07 11:09:57;;;;;;;6.38;2.80;;;;;;;28.72;39.53;98442.84;4998769;28;20018;-63
2022/07/07 11:12:40;;;;;;;5.95;2.30;;;;;;;28.83;39.64;98451.69;4994554;28;20097;-69
2022/07/07 11:15:14;;;;;;;5.05;2.50;;;;;;;28.97;39.69;98451.13;5001753;28;20030;-67
2022/07/07 11:17:44;;;;;;;4.60;2.35;;;;;;;29.17;38.33;98439.63;4998006;28;20156;-64
2022/07/07 11:20:13;;;;;;;5.20;2.70;;;;;;;28.94;38.09;98420.38;5001474;28;20127;-69
2022/07/07 11:22:53;;;;;;;4.93;2.85;;;;;;;29.06;39.14;98436.13;5003495;28;20025;-63
2022/07/07 11:25:23;;;;;;;5.32;2.63;;;;;;;29.02;39.02;98441.22;5002313;28;20504;-63
2022/07/07 11:27:49;;;;;;;6.03;2.72;;;;;;;28.94;39.54;98453.28;4986221;28;20021;-64
2022/07/07 11:30:15;;;;;;;4.60;2.63;;;;;;;28.74;39.68;98407.81;4989736;28;20026;-63
2022/07/07 11:32:42;;;;;;;4.97;2.58;;;;;;;28.94;38.38;98434.53;5002493;28;20076;-63
2022/07/07 11:35:10;;;;;;;5.45;2.80;;;;;;;28.84;43.06;98434.56;4999953;28;20037;-66